sensor_id;sensor_type;location;lat;lon;timestamp;P1;durP1;ratioP1;P2;durP2;ratioP2
42668;SDS011;29384;42.028;21.388;2022-10-15T00:02:23;7.30;;;4.65;;
42668;SDS011;29384;42.028;21.388;2022-10-15T00:04:48;5.50;;;3.65;;
42668;SDS011;29384;42.028;21.388;2022-10-15T00:07:13;3.88;;;3.47;;
42668;SDS011;29384;42.028;21.388;2022-10-15T00:09:38;2.88;;;2.67;;
42668;SDS011;29384;42.028;21.388;2022-10-15T00:12:04;3.30;;;3.08;;
42668;SDS011;29384;42.028;21.388;2022-10-15T00:14:29;3.28;;;3.08;;
42668;SDS011;29384;42.028;21.388;2022-10-15T00:16:55;5.88;;;3.80;;
42668;SDS011;29384;42.028;21.388;2022-10-15T00:19:20;4.35;;;3.95;;
42668;SDS011;29384;42.028;21.388;2022-10-15T00:21:45;6.32;;;3.83;;
42668;SDS011;29384;42.028;21.388;2022-10-15T00:24:10;8.93;;;5.47;;
42668;SDS011;29384;42.028;21.388;2022-10-15T00:26:36;5.78;;;5.05;;
42668;SDS011;29384;42.028;21.388;2022-10-15T00:29:02;9.68;;;4.97;;
42668;SDS011;29384;42.028;21.388;2022-10-15T00:31:28;8.40;;;5.30;;
42668;SDS011;29384;42.028;21.388;2022-10-15T00:33:54;6.45;;;5.85;;
42668;SDS011;29384;42.028;21.388;2022-10-15T00:36:20;11.57;;;6.22;;
42668;SDS011;29384;42.028;21.388;2022-10-15T00:38:46;9.98;;;5.50;;
42668;SDS011;29384;42.028;21.388;2022-10-15T00:41:13;10.52;;;5.57;;
42668;SDS011;29384;42.028;21.388;2022-10-15T00:43:46;6.50;;;4.80;;
42668;SDS011;29384;42.028;21.388;2022-10-15T00:48:44;5.63;;;4.65;;
42668;SDS011;29384;42.028;21.388;2022-10-15T00:51:10;10.98;;;4.53;;
42668;SDS011;29384;42.028;21.388;2022-10-15T00:53:35;10.50;;;5.03;;
42668;SDS011;29384;42.028;21.388;2022-10-15T00:56:01;15.52;;;5.10;;
42668;SDS011;29384;42.028;21.388;2022-10-15T00:58:26;8.10;;;5.43;;
42668;SDS011;29384;42.028;21.388;2022-10-15T01:00:54;5.30;;;4.35;;
42668;SDS011;29384;42.028;21.388;2022-10-15T01:03:20;4.93;;;4.40;;
42668;SDS011;29384;42.028;21.388;2022-10-15T01:05:46;8.35;;;3.72;;
42668;SDS011;29384;42.028;21.388;2022-10-15T01:08:12;10.32;;;5.25;;
42668;SDS011;29384;42.028;21.388;2022-10-15T01:10:47;6.80;;;3.80;;
42668;SDS011;29384;42.028;21.388;2022-10-15T01:13:34;13.95;;;4.18;;
42668;SDS011;29384;42.028;21.388;2022-10-15T01:16:12;4.13;;;3.75;;
42668;SDS011;29384;42.028;21.388;2022-10-15T01:18:56;6.50;;;4.22;;
42668;SDS011;29384;42.028;21.388;2022-10-15T01:21:33;4.05;;;3.60;;
42668;SDS011;29384;42.028;21.388;2022-10-15T01:29:34;9.35;;;5.80;;
42668;SDS011;29384;42.028;21.388;2022-10-15T01:39:38;23.63;;;13.23;;
42668;SDS011;29384;42.028;21.388;2022-10-15T01:42:06;26.08;;;15.82;;
42668;SDS011;29384;42.028;21.388;2022-10-15T01:44:37;27.85;;;16.30;;
42668;SDS011;29384;42.028;21.388;2022-10-15T01:47:06;33.00;;;19.10;;
42668;SDS011;29384;42.028;21.388;2022-10-15T01:49:33;36.80;;;19.20;;
42668;SDS011;29384;42.028;21.388;2022-10-15T01:52:01;36.55;;;18.60;;
42668;SDS011;29384;42.028;21.388;2022-10-15T01:54:27;37.40;;;18.60;;
42668;SDS011;29384;42.028;21.388;2022-10-15T01:56:52;35.42;;;19.05;;
42668;SDS011;29384;42.028;21.388;2022-10-15T01:59:19;39.72;;;19.40;;
42668;SDS011;29384;42.028;21.388;2022-10-15T02:01:45;33.13;;;17.02;;
42668;SDS011;29384;42.028;21.388;2022-10-15T02:04:18;25.80;;;13.95;;
42668;SDS011;29384;42.028;21.388;2022-10-15T02:06:44;19.95;;;12.43;;
42668;SDS011;29384;42.028;21.388;2022-10-15T02:09:16;26.90;;;14.45;;
42668;SDS011;29384;42.028;21.388;2022-10-15T02:11:49;32.17;;;16.55;;
42668;SDS011;29384;42.028;21.388;2022-10-15T02:14:26;34.15;;;14.60;;
42668;SDS011;29384;42.028;21.388;2022-10-15T02:16:56;27.33;;;14.02;;
42668;SDS011;29384;42.028;21.388;2022-10-15T02:19:31;27.42;;;14.93;;
42668;SDS011;29384;42.028;21.388;2022-10-15T02:22:04;19.52;;;12.63;;
42668;SDS011;29384;42.028;21.388;2022-10-15T02:24:34;21.95;;;12.38;;
42668;SDS011;29384;42.028;21.388;2022-10-15T02:27:01;25.67;;;13.45;;
42668;SDS011;29384;42.028;21.388;2022-10-15T02:29:27;26.38;;;13.15;;
42668;SDS011;29384;42.028;21.388;2022-10-15T02:31:55;25.13;;;12.85;;
42668;SDS011;29384;42.028;21.388;2022-10-15T02:34:22;30.13;;;13.88;;
42668;SDS011;29384;42.028;21.388;2022-10-15T02:36:49;26.95;;;12.55;;
42668;SDS011;29384;42.028;21.388;2022-10-15T02:39:16;22.80;;;11.60;;
42668;SDS011;29384;42.028;21.388;2022-10-15T02:41:42;22.50;;;11.57;;
42668;SDS011;29384;42.028;21.388;2022-10-15T02:44:09;19.42;;;12.02;;
42668;SDS011;29384;42.028;21.388;2022-10-15T02:46:34;26.58;;;12.50;;
42668;SDS011;29384;42.028;21.388;2022-10-15T02:48:59;40.72;;;17.58;;
42668;SDS011;29384;42.028;21.388;2022-10-15T02:51:25;40.33;;;16.85;;
42668;SDS011;29384;42.028;21.388;2022-10-15T02:53:50;37.78;;;15.43;;
42668;SDS011;29384;42.028;21.388;2022-10-15T02:56:15;24.15;;;11.23;;
42668;SDS011;29384;42.028;21.388;2022-10-15T02:58:41;20.73;;;6.35;;
42668;SDS011;29384;42.028;21.388;2022-10-15T03:01:06;19.27;;;6.88;;
42668;SDS011;29384;42.028;21.388;2022-10-15T03:03:31;6.80;;;5.13;;
42668;SDS011;29384;42.028;21.388;2022-10-15T03:05:56;17.83;;;3.45;;
42668;SDS011;29384;42.028;21.388;2022-10-15T03:08:22;3.80;;;3.50;;
42668;SDS011;29384;42.028;21.388;2022-10-15T03:10:47;3.13;;;2.92;;
42668;SDS011;29384;42.028;21.388;2022-10-15T03:13:12;2.35;;;2.25;;
42668;SDS011;29384;42.028;21.388;2022-10-15T03:15:38;2.35;;;2.15;;
42668;SDS011;29384;42.028;21.388;2022-10-15T03:18:04;7.57;;;3.20;;
42668;SDS011;29384;42.028;21.388;2022-10-15T03:20:29;2.55;;;2.45;;
42668;SDS011;29384;42.028;21.388;2022-10-15T03:22:54;2.55;;;2.45;;
42668;SDS011;29384;42.028;21.388;2022-10-15T03:25:20;2.80;;;2.60;;
42668;SDS011;29384;42.028;21.388;2022-10-15T03:27:45;3.45;;;2.83;;
42668;SDS011;29384;42.028;21.388;2022-10-15T03:30:10;3.40;;;3.10;;
42668;SDS011;29384;42.028;21.388;2022-10-15T03:32:36;2.63;;;2.45;;
42668;SDS011;29384;42.028;21.388;2022-10-15T03:35:01;2.63;;;2.47;;
42668;SDS011;29384;42.028;21.388;2022-10-15T03:37:26;2.53;;;2.33;;
42668;SDS011;29384;42.028;21.388;2022-10-15T03:39:51;3.00;;;2.63;;
42668;SDS011;29384;42.028;21.388;2022-10-15T03:42:17;5.72;;;2.30;;
42668;SDS011;29384;42.028;21.388;2022-10-15T03:44:42;3.47;;;2.95;;
42668;SDS011;29384;42.028;21.388;2022-10-15T03:47:07;2.88;;;2.67;;
42668;SDS011;29384;42.028;21.388;2022-10-15T03:49:33;2.38;;;2.25;;
42668;SDS011;29384;42.028;21.388;2022-10-15T03:51:58;3.72;;;3.42;;
42668;SDS011;29384;42.028;21.388;2022-10-15T03:54:23;2.38;;;2.28;;
42668;SDS011;29384;42.028;21.388;2022-10-15T03:56:49;4.38;;;3.40;;
42668;SDS011;29384;42.028;21.388;2022-10-15T03:59:14;3.65;;;3.45;;
42668;SDS011;29384;42.028;21.388;2022-10-15T04:01:40;4.03;;;3.53;;
42668;SDS011;29384;42.028;21.388;2022-10-15T04:04:05;8.45;;;4.85;;
42668;SDS011;29384;42.028;21.388;2022-10-15T04:06:31;8.18;;;4.45;;
42668;SDS011;29384;42.028;21.388;2022-10-15T04:08:58;8.85;;;5.28;;
42668;SDS011;29384;42.028;21.388;2022-10-15T04:11:23;9.18;;;6.53;;
42668;SDS011;29384;42.028;21.388;2022-10-15T04:13:49;8.13;;;6.53;;
42668;SDS011;29384;42.028;21.388;2022-10-15T04:16:15;9.10;;;6.18;;
42668;SDS011;29384;42.028;21.388;2022-10-15T04:18:40;7.15;;;5.75;;
42668;SDS011;29384;42.028;21.388;2022-10-15T04:21:05;5.68;;;4.30;;
42668;SDS011;29384;42.028;21.388;2022-10-15T04:23:30;7.55;;;5.80;;
42668;SDS011;29384;42.028;21.388;2022-10-15T04:25:59;14.02;;;6.22;;
42668;SDS011;29384;42.028;21.388;2022-10-15T04:28:25;11.23;;;6.32;;
42668;SDS011;29384;42.028;21.388;2022-10-15T04:30:50;14.88;;;8.45;;
42668;SDS011;29384;42.028;21.388;2022-10-15T04:33:15;15.70;;;7.53;;
42668;SDS011;29384;42.028;21.388;2022-10-15T04:35:41;16.60;;;8.05;;
42668;SDS011;29384;42.028;21.388;2022-10-15T04:38:06;12.02;;;6.72;;
42668;SDS011;29384;42.028;21.388;2022-10-15T04:40:31;19.60;;;6.85;;
42668;SDS011;29384;42.028;21.388;2022-10-15T04:42:57;9.00;;;7.25;;
42668;SDS011;29384;42.028;21.388;2022-10-15T04:45:22;9.77;;;6.95;;
42668;SDS011;29384;42.028;21.388;2022-10-15T04:47:47;11.20;;;6.45;;
42668;SDS011;29384;42.028;21.388;2022-10-15T04:50:13;11.55;;;6.07;;
42668;SDS011;29384;42.028;21.388;2022-10-15T04:52:38;7.38;;;6.03;;
42668;SDS011;29384;42.028;21.388;2022-10-15T04:55:04;10.45;;;5.50;;
42668;SDS011;29384;42.028;21.388;2022-10-15T04:57:30;7.55;;;5.13;;
42668;SDS011;29384;42.028;21.388;2022-10-15T04:59:55;4.07;;;3.67;;
42668;SDS011;29384;42.028;21.388;2022-10-15T05:02:21;4.13;;;3.75;;
42668;SDS011;29384;42.028;21.388;2022-10-15T05:04:46;6.93;;;4.63;;
42668;SDS011;29384;42.028;21.388;2022-10-15T05:07:11;4.32;;;4.00;;
42668;SDS011;29384;42.028;21.388;2022-10-15T05:09:37;4.82;;;4.28;;
42668;SDS011;29384;42.028;21.388;2022-10-15T05:12:02;21.75;;;5.43;;
42668;SDS011;29384;42.028;21.388;2022-10-15T05:14:27;8.65;;;5.18;;
42668;SDS011;29384;42.028;21.388;2022-10-15T05:16:53;8.90;;;5.72;;
42668;SDS011;29384;42.028;21.388;2022-10-15T05:19:18;13.73;;;6.72;;
42668;SDS011;29384;42.028;21.388;2022-10-15T05:21:44;9.32;;;5.63;;
42668;SDS011;29384;42.028;21.388;2022-10-15T05:24:09;5.65;;;4.25;;
42668;SDS011;29384;42.028;21.388;2022-10-15T05:26:35;3.75;;;3.45;;
42668;SDS011;29384;42.028;21.388;2022-10-15T05:29:00;3.55;;;3.25;;
42668;SDS011;29384;42.028;21.388;2022-10-15T05:31:26;2.30;;;2.20;;
42668;SDS011;29384;42.028;21.388;2022-10-15T05:33:52;2.95;;;2.70;;
42668;SDS011;29384;42.028;21.388;2022-10-15T05:36:23;3.60;;;3.40;;
42668;SDS011;29384;42.028;21.388;2022-10-15T05:38:50;8.55;;;3.40;;
42668;SDS011;29384;42.028;21.388;2022-10-15T05:41:16;3.35;;;3.13;;
42668;SDS011;29384;42.028;21.388;2022-10-15T05:43:41;4.32;;;3.10;;
42668;SDS011;29384;42.028;21.388;2022-10-15T05:46:07;4.63;;;3.97;;
42668;SDS011;29384;42.028;21.388;2022-10-15T05:48:32;5.75;;;3.35;;
42668;SDS011;29384;42.028;21.388;2022-10-15T05:51:01;4.10;;;3.75;;
42668;SDS011;29384;42.028;21.388;2022-10-15T05:53:27;19.85;;;3.88;;
42668;SDS011;29384;42.028;21.388;2022-10-15T05:55:52;4.40;;;3.50;;
42668;SDS011;29384;42.028;21.388;2022-10-15T05:58:18;5.47;;;4.13;;
42668;SDS011;29384;42.028;21.388;2022-10-15T06:00:43;5.97;;;5.15;;
42668;SDS011;29384;42.028;21.388;2022-10-15T06:03:12;9.63;;;5.57;;
42668;SDS011;29384;42.028;21.388;2022-10-15T06:05:38;9.52;;;4.68;;
42668;SDS011;29384;42.028;21.388;2022-10-15T06:08:03;6.85;;;4.50;;
42668;SDS011;29384;42.028;21.388;2022-10-15T06:10:29;4.65;;;4.25;;
42668;SDS011;29384;42.028;21.388;2022-10-15T06:12:54;4.03;;;3.83;;
42668;SDS011;29384;42.028;21.388;2022-10-15T06:15:20;6.30;;;4.95;;
42668;SDS011;29384;42.028;21.388;2022-10-15T06:17:45;6.07;;;5.05;;
42668;SDS011;29384;42.028;21.388;2022-10-15T06:20:11;6.30;;;5.70;;
42668;SDS011;29384;42.028;21.388;2022-10-15T06:22:36;7.53;;;6.18;;
42668;SDS011;29384;42.028;21.388;2022-10-15T06:25:01;9.23;;;6.47;;
42668;SDS011;29384;42.028;21.388;2022-10-15T06:27:27;9.98;;;5.95;;
42668;SDS011;29384;42.028;21.388;2022-10-15T06:29:52;7.82;;;6.22;;
42668;SDS011;29384;42.028;21.388;2022-10-15T06:32:17;15.50;;;7.75;;
42668;SDS011;29384;42.028;21.388;2022-10-15T06:34:43;15.10;;;8.60;;
42668;SDS011;29384;42.028;21.388;2022-10-15T06:37:08;13.30;;;7.40;;
42668;SDS011;29384;42.028;21.388;2022-10-15T06:39:34;5.38;;;4.53;;
42668;SDS011;29384;42.028;21.388;2022-10-15T06:41:59;5.30;;;4.65;;
42668;SDS011;29384;42.028;21.388;2022-10-15T06:44:24;4.20;;;3.58;;
42668;SDS011;29384;42.028;21.388;2022-10-15T06:46:49;5.93;;;4.13;;
42668;SDS011;29384;42.028;21.388;2022-10-15T06:49:15;5.38;;;4.88;;
42668;SDS011;29384;42.028;21.388;2022-10-15T06:51:40;5.43;;;5.03;;
42668;SDS011;29384;42.028;21.388;2022-10-15T06:54:05;6.07;;;4.85;;
42668;SDS011;29384;42.028;21.388;2022-10-15T06:56:30;5.65;;;5.10;;
42668;SDS011;29384;42.028;21.388;2022-10-15T06:58:56;6.88;;;4.57;;
42668;SDS011;29384;42.028;21.388;2022-10-15T07:01:21;4.45;;;4.10;;
42668;SDS011;29384;42.028;21.388;2022-10-15T07:03:50;4.00;;;3.70;;
42668;SDS011;29384;42.028;21.388;2022-10-15T07:06:15;4.30;;;3.70;;
42668;SDS011;29384;42.028;21.388;2022-10-15T07:08:41;5.30;;;4.82;;
42668;SDS011;29384;42.028;21.388;2022-10-15T07:11:07;7.10;;;5.40;;
42668;SDS011;29384;42.028;21.388;2022-10-15T07:13:35;4.85;;;4.30;;
42668;SDS011;29384;42.028;21.388;2022-10-15T07:16:04;4.95;;;4.55;;
42668;SDS011;29384;42.028;21.388;2022-10-15T07:18:30;4.93;;;4.53;;
42668;SDS011;29384;42.028;21.388;2022-10-15T07:20:55;6.63;;;4.82;;
42668;SDS011;29384;42.028;21.388;2022-10-15T07:23:21;5.25;;;4.85;;
42668;SDS011;29384;42.028;21.388;2022-10-15T07:25:46;6.38;;;4.32;;
42668;SDS011;29384;42.028;21.388;2022-10-15T07:28:12;4.90;;;4.13;;
42668;SDS011;29384;42.028;21.388;2022-10-15T07:30:37;4.90;;;4.50;;
42668;SDS011;29384;42.028;21.388;2022-10-15T07:33:02;4.50;;;4.10;;
42668;SDS011;29384;42.028;21.388;2022-10-15T07:35:27;4.65;;;3.83;;
42668;SDS011;29384;42.028;21.388;2022-10-15T07:37:53;3.10;;;2.90;;
42668;SDS011;29384;42.028;21.388;2022-10-15T07:40:19;6.45;;;3.53;;
42668;SDS011;29384;42.028;21.388;2022-10-15T07:42:50;3.88;;;3.03;;
42668;SDS011;29384;42.028;21.388;2022-10-15T07:45:16;3.90;;;3.60;;
42668;SDS011;29384;42.028;21.388;2022-10-15T07:47:41;3.63;;;3.42;;
42668;SDS011;29384;42.028;21.388;2022-10-15T07:50:06;3.65;;;3.42;;
42668;SDS011;29384;42.028;21.388;2022-10-15T07:52:32;4.07;;;3.63;;
42668;SDS011;29384;42.028;21.388;2022-10-15T07:54:57;5.72;;;3.42;;
42668;SDS011;29384;42.028;21.388;2022-10-15T07:57:22;2.70;;;2.60;;
42668;SDS011;29384;42.028;21.388;2022-10-15T07:59:48;2.65;;;2.50;;
42668;SDS011;29384;42.028;21.388;2022-10-15T08:02:14;2.08;;;1.98;;
42668;SDS011;29384;42.028;21.388;2022-10-15T08:04:39;4.97;;;2.40;;
42668;SDS011;29384;42.028;21.388;2022-10-15T08:07:05;3.28;;;3.08;;
42668;SDS011;29384;42.028;21.388;2022-10-15T08:09:30;3.10;;;2.88;;
42668;SDS011;29384;42.028;21.388;2022-10-15T08:11:55;3.60;;;3.40;;
42668;SDS011;29384;42.028;21.388;2022-10-15T08:14:21;4.15;;;2.58;;
42668;SDS011;29384;42.028;21.388;2022-10-15T08:16:46;2.22;;;2.10;;
42668;SDS011;29384;42.028;21.388;2022-10-15T08:19:11;2.85;;;2.65;;
42668;SDS011;29384;42.028;21.388;2022-10-15T08:21:37;3.10;;;2.85;;
42668;SDS011;29384;42.028;21.388;2022-10-15T08:24:02;4.50;;;2.80;;
42668;SDS011;29384;42.028;21.388;2022-10-15T08:26:27;4.35;;;3.28;;
42668;SDS011;29384;42.028;21.388;2022-10-15T08:28:53;2.58;;;2.30;;
42668;SDS011;29384;42.028;21.388;2022-10-15T08:31:18;3.00;;;2.80;;
42668;SDS011;29384;42.028;21.388;2022-10-15T08:33:43;4.18;;;2.90;;
42668;SDS011;29384;42.028;21.388;2022-10-15T08:36:10;2.25;;;2.15;;
42668;SDS011;29384;42.028;21.388;2022-10-15T08:38:35;2.33;;;2.22;;
42668;SDS011;29384;42.028;21.388;2022-10-15T08:41:01;2.55;;;2.35;;
42668;SDS011;29384;42.028;21.388;2022-10-15T08:43:36;2.40;;;2.17;;
42668;SDS011;29384;42.028;21.388;2022-10-15T08:46:08;2.40;;;2.30;;
42668;SDS011;29384;42.028;21.388;2022-10-15T08:48:37;1.92;;;1.83;;
42668;SDS011;29384;42.028;21.388;2022-10-15T08:51:13;3.15;;;2.88;;
42668;SDS011;29384;42.028;21.388;2022-10-15T08:53:48;2.70;;;2.60;;
42668;SDS011;29384;42.028;21.388;2022-10-15T08:56:16;2.78;;;2.55;;
42668;SDS011;29384;42.028;21.388;2022-10-15T08:58:55;2.05;;;1.95;;
42668;SDS011;29384;42.028;21.388;2022-10-15T09:01:26;2.47;;;2.08;;
42668;SDS011;29384;42.028;21.388;2022-10-15T09:04:05;3.15;;;2.20;;
42668;SDS011;29384;42.028;21.388;2022-10-15T09:06:35;2.53;;;2.20;;
42668;SDS011;29384;42.028;21.388;2022-10-15T09:11:39;2.30;;;2.08;;
42668;SDS011;29384;42.028;21.388;2022-10-15T09:14:08;2.13;;;2.03;;
42668;SDS011;29384;42.028;21.388;2022-10-15T09:16:36;9.40;;;2.92;;
42668;SDS011;29384;42.028;21.388;2022-10-15T09:19:03;2.45;;;2.25;;
42668;SDS011;29384;42.028;21.388;2022-10-15T09:21:29;2.22;;;1.48;;
42668;SDS011;29384;42.028;21.388;2022-10-15T09:23:56;1.77;;;1.77;;
42668;SDS011;29384;42.028;21.388;2022-10-15T09:26:26;1.92;;;1.80;;
42668;SDS011;29384;42.028;21.388;2022-10-15T09:29:10;13.95;;;2.38;;
42668;SDS011;29384;42.028;21.388;2022-10-15T09:31:44;1.35;;;1.30;;
42668;SDS011;29384;42.028;21.388;2022-10-15T09:34:13;2.40;;;2.20;;
42668;SDS011;29384;42.028;21.388;2022-10-15T09:36:42;3.97;;;2.03;;
42668;SDS011;29384;42.028;21.388;2022-10-15T09:44:13;3.67;;;3.38;;
42668;SDS011;29384;42.028;21.388;2022-10-15T09:46:46;2.72;;;2.63;;
42668;SDS011;29384;42.028;21.388;2022-10-15T09:49:13;3.20;;;2.88;;
42668;SDS011;29384;42.028;21.388;2022-10-15T09:51:45;3.35;;;3.13;;
42668;SDS011;29384;42.028;21.388;2022-10-15T09:54:17;6.18;;;3.88;;
42668;SDS011;29384;42.028;21.388;2022-10-15T09:56:53;5.78;;;2.67;;
42668;SDS011;29384;42.028;21.388;2022-10-15T09:59:20;2.90;;;2.43;;
42668;SDS011;29384;42.028;21.388;2022-10-15T10:02:02;8.00;;;3.72;;
42668;SDS011;29384;42.028;21.388;2022-10-15T10:04:29;9.63;;;5.18;;
42668;SDS011;29384;42.028;21.388;2022-10-15T10:06:55;6.53;;;4.95;;
42668;SDS011;29384;42.028;21.388;2022-10-15T10:09:23;10.27;;;5.00;;
42668;SDS011;29384;42.028;21.388;2022-10-15T10:11:50;10.38;;;6.85;;
42668;SDS011;29384;42.028;21.388;2022-10-15T10:14:22;9.85;;;6.40;;
42668;SDS011;29384;42.028;21.388;2022-10-15T10:22:31;10.93;;;6.65;;
42668;SDS011;29384;42.028;21.388;2022-10-15T10:25:20;10.75;;;7.07;;
42668;SDS011;29384;42.028;21.388;2022-10-15T10:27:47;12.23;;;5.97;;
42668;SDS011;29384;42.028;21.388;2022-10-15T10:30:12;10.63;;;6.05;;
42668;SDS011;29384;42.028;21.388;2022-10-15T10:32:38;8.77;;;5.88;;
42668;SDS011;29384;42.028;21.388;2022-10-15T10:35:03;8.73;;;6.35;;
42668;SDS011;29384;42.028;21.388;2022-10-15T10:37:39;9.63;;;6.90;;
42668;SDS011;29384;42.028;21.388;2022-10-15T10:40:05;6.53;;;5.68;;
42668;SDS011;29384;42.028;21.388;2022-10-15T10:42:43;5.70;;;5.10;;
42668;SDS011;29384;42.028;21.388;2022-10-15T10:45:14;7.13;;;5.65;;
42668;SDS011;29384;42.028;21.388;2022-10-15T10:47:40;7.53;;;5.13;;
42668;SDS011;29384;42.028;21.388;2022-10-15T10:50:10;11.05;;;5.80;;
42668;SDS011;29384;42.028;21.388;2022-10-15T10:52:49;8.45;;;5.30;;
42668;SDS011;29384;42.028;21.388;2022-10-15T10:55:18;11.98;;;6.68;;
42668;SDS011;29384;42.028;21.388;2022-10-15T10:57:49;5.35;;;4.85;;
42668;SDS011;29384;42.028;21.388;2022-10-15T11:00:19;11.55;;;4.75;;
42668;SDS011;29384;42.028;21.388;2022-10-15T11:02:45;8.82;;;5.10;;
42668;SDS011;29384;42.028;21.388;2022-10-15T11:05:11;7.88;;;5.00;;
42668;SDS011;29384;42.028;21.388;2022-10-15T11:10:17;5.25;;;4.70;;
42668;SDS011;29384;42.028;21.388;2022-10-15T11:15:21;5.45;;;5.05;;
42668;SDS011;29384;42.028;21.388;2022-10-15T11:23:28;8.05;;;4.18;;
42668;SDS011;29384;42.028;21.388;2022-10-15T11:38:59;3.88;;;3.47;;
42668;SDS011;29384;42.028;21.388;2022-10-15T11:49:03;2.88;;;2.78;;
42668;SDS011;29384;42.028;21.388;2022-10-15T11:51:33;2.55;;;2.45;;
42668;SDS011;29384;42.028;21.388;2022-10-15T11:54:11;2.75;;;2.63;;
42668;SDS011;29384;42.028;21.388;2022-10-15T11:56:42;3.30;;;2.38;;
42668;SDS011;29384;42.028;21.388;2022-10-15T11:59:12;2.85;;;2.65;;
42668;SDS011;29384;42.028;21.388;2022-10-15T12:04:49;2.92;;;2.53;;
42668;SDS011;29384;42.028;21.388;2022-10-15T12:07:15;2.38;;;2.17;;
42668;SDS011;29384;42.028;21.388;2022-10-15T12:09:43;2.85;;;2.65;;
42668;SDS011;29384;42.028;21.388;2022-10-15T12:15:06;2.78;;;2.58;;
42668;SDS011;29384;42.028;21.388;2022-10-15T12:17:45;2.17;;;2.10;;
42668;SDS011;29384;42.028;21.388;2022-10-15T12:20:14;2.28;;;2.17;;
42668;SDS011;29384;42.028;21.388;2022-10-15T12:22:52;2.75;;;2.33;;
42668;SDS011;29384;42.028;21.388;2022-10-15T12:30:33;2.97;;;2.22;;
42668;SDS011;29384;42.028;21.388;2022-10-15T12:33:01;2.25;;;2.15;;
42668;SDS011;29384;42.028;21.388;2022-10-15T12:35:32;2.40;;;2.20;;
42668;SDS011;29384;42.028;21.388;2022-10-15T12:38:09;6.28;;;1.92;;
42668;SDS011;29384;42.028;21.388;2022-10-15T12:40:35;2.85;;;2.17;;
42668;SDS011;29384;42.028;21.388;2022-10-15T12:43:02;4.18;;;2.30;;
42668;SDS011;29384;42.028;21.388;2022-10-15T12:50:28;1.80;;;1.80;;
42668;SDS011;29384;42.028;21.388;2022-10-15T12:55:39;5.95;;;1.88;;
42668;SDS011;29384;42.028;21.388;2022-10-15T13:00:48;4.20;;;2.30;;
42668;SDS011;29384;42.028;21.388;2022-10-15T13:05:38;1.60;;;1.42;;
42668;SDS011;29384;42.028;21.388;2022-10-15T13:08:05;2.08;;;1.88;;
42668;SDS011;29384;42.028;21.388;2022-10-15T13:10:40;1.55;;;1.48;;
42668;SDS011;29384;42.028;21.388;2022-10-15T13:13:13;1.55;;;1.55;;
42668;SDS011;29384;42.028;21.388;2022-10-15T13:15:39;1.83;;;1.73;;
42668;SDS011;29384;42.028;21.388;2022-10-15T13:18:06;2.13;;;1.50;;
42668;SDS011;29384;42.028;21.388;2022-10-15T13:20:37;2.33;;;1.65;;
42668;SDS011;29384;42.028;21.388;2022-10-15T13:23:09;1.23;;;1.17;;
42668;SDS011;29384;42.028;21.388;2022-10-15T13:25:35;2.22;;;2.13;;
42668;SDS011;29384;42.028;21.388;2022-10-15T13:28:00;1.20;;;1.20;;
42668;SDS011;29384;42.028;21.388;2022-10-15T13:30:25;1.20;;;1.20;;
42668;SDS011;29384;42.028;21.388;2022-10-15T13:32:51;1.77;;;1.67;;
42668;SDS011;29384;42.028;21.388;2022-10-15T13:35:18;5.88;;;1.45;;
42668;SDS011;29384;42.028;21.388;2022-10-15T13:37:44;2.05;;;1.77;;
42668;SDS011;29384;42.028;21.388;2022-10-15T13:40:31;2.83;;;1.52;;
42668;SDS011;29384;42.028;21.388;2022-10-15T13:43:03;1.20;;;1.20;;
42668;SDS011;29384;42.028;21.388;2022-10-15T13:45:30;1.60;;;1.50;;
42668;SDS011;29384;42.028;21.388;2022-10-15T13:47:56;5.82;;;1.70;;
42668;SDS011;29384;42.028;21.388;2022-10-15T13:55:16;4.32;;;1.85;;
42668;SDS011;29384;42.028;21.388;2022-10-15T14:03:51;1.38;;;1.27;;
42668;SDS011;29384;42.028;21.388;2022-10-15T14:08:42;3.70;;;1.27;;
42668;SDS011;29384;42.028;21.388;2022-10-15T14:11:12;2.15;;;1.65;;
42668;SDS011;29384;42.028;21.388;2022-10-15T14:18:57;1.65;;;1.60;;
42668;SDS011;29384;42.028;21.388;2022-10-15T14:21:23;9.02;;;3.15;;
42668;SDS011;29384;42.028;21.388;2022-10-15T14:24:15;9.73;;;5.47;;
42668;SDS011;29384;42.028;21.388;2022-10-15T14:26:41;1.50;;;1.40;;
42668;SDS011;29384;42.028;21.388;2022-10-15T14:29:18;3.40;;;2.50;;
42668;SDS011;29384;42.028;21.388;2022-10-15T14:31:46;13.13;;;4.55;;
42668;SDS011;29384;42.028;21.388;2022-10-15T14:36:56;6.47;;;3.08;;
42668;SDS011;29384;42.028;21.388;2022-10-15T14:39:32;1.75;;;1.75;;
42668;SDS011;29384;42.028;21.388;2022-10-15T14:42:05;2.38;;;2.17;;
42668;SDS011;29384;42.028;21.388;2022-10-15T14:44:43;3.40;;;3.10;;
42668;SDS011;29384;42.028;21.388;2022-10-15T14:47:29;11.98;;;8.40;;
42668;SDS011;29384;42.028;21.388;2022-10-15T14:49:57;2.47;;;2.20;;
42668;SDS011;29384;42.028;21.388;2022-10-15T14:52:23;13.35;;;4.50;;
42668;SDS011;29384;42.028;21.388;2022-10-15T14:55:05;4.78;;;2.30;;
42668;SDS011;29384;42.028;21.388;2022-10-15T14:57:35;5.28;;;1.95;;
42668;SDS011;29384;42.028;21.388;2022-10-15T15:00:01;1.88;;;1.88;;
42668;SDS011;29384;42.028;21.388;2022-10-15T15:02:27;9.10;;;2.28;;
42668;SDS011;29384;42.028;21.388;2022-10-15T15:05:26;1.95;;;1.85;;
42668;SDS011;29384;42.028;21.388;2022-10-15T15:07:44;1.75;;;1.75;;
42668;SDS011;29384;42.028;21.388;2022-10-15T15:10:12;1.55;;;1.40;;
42668;SDS011;29384;42.028;21.388;2022-10-15T15:12:37;6.55;;;2.05;;
42668;SDS011;29384;42.028;21.388;2022-10-15T15:15:03;1.63;;;1.58;;
42668;SDS011;29384;42.028;21.388;2022-10-15T15:17:29;2.05;;;1.95;;
42668;SDS011;29384;42.028;21.388;2022-10-15T15:19:55;7.95;;;2.50;;
42668;SDS011;29384;42.028;21.388;2022-10-15T15:22:29;5.28;;;2.03;;
42668;SDS011;29384;42.028;21.388;2022-10-15T15:24:55;1.65;;;1.40;;
42668;SDS011;29384;42.028;21.388;2022-10-15T15:27:23;2.30;;;1.83;;
42668;SDS011;29384;42.028;21.388;2022-10-15T15:29:49;4.25;;;1.55;;
42668;SDS011;29384;42.028;21.388;2022-10-15T15:32:14;3.08;;;1.70;;
42668;SDS011;29384;42.028;21.388;2022-10-15T15:34:40;2.17;;;1.98;;
42668;SDS011;29384;42.028;21.388;2022-10-15T15:37:15;4.18;;;2.08;;
42668;SDS011;29384;42.028;21.388;2022-10-15T15:39:41;7.60;;;1.75;;
42668;SDS011;29384;42.028;21.388;2022-10-15T15:56:04;5.35;;;2.00;;
42668;SDS011;29384;42.028;21.388;2022-10-15T15:58:29;3.72;;;2.35;;
42668;SDS011;29384;42.028;21.388;2022-10-15T16:00:54;2.80;;;2.50;;
42668;SDS011;29384;42.028;21.388;2022-10-15T16:03:19;2.25;;;2.15;;
42668;SDS011;29384;42.028;21.388;2022-10-15T16:05:45;3.45;;;2.88;;
42668;SDS011;29384;42.028;21.388;2022-10-15T16:08:10;5.20;;;3.40;;
42668;SDS011;29384;42.028;21.388;2022-10-15T16:10:36;4.80;;;3.85;;
42668;SDS011;29384;42.028;21.388;2022-10-15T16:13:02;5.55;;;3.58;;
42668;SDS011;29384;42.028;21.388;2022-10-15T16:15:27;4.88;;;3.60;;
42668;SDS011;29384;42.028;21.388;2022-10-15T16:17:53;7.25;;;4.00;;
42668;SDS011;29384;42.028;21.388;2022-10-15T16:20:19;7.10;;;3.13;;
42668;SDS011;29384;42.028;21.388;2022-10-15T16:22:47;3.40;;;3.15;;
42668;SDS011;29384;42.028;21.388;2022-10-15T16:25:13;3.83;;;3.13;;
42668;SDS011;29384;42.028;21.388;2022-10-15T16:27:38;3.55;;;3.30;;
42668;SDS011;29384;42.028;21.388;2022-10-15T16:30:03;7.60;;;3.17;;
42668;SDS011;29384;42.028;21.388;2022-10-15T16:32:29;5.70;;;3.25;;
42668;SDS011;29384;42.028;21.388;2022-10-15T16:34:54;8.93;;;3.75;;